createdAt,value
2022-10-19T00:00:49.319Z,88.10
2022-10-19T00:03:20.699Z,88.00
2022-10-19T00:05:50.545Z,87.90
2022-10-19T00:08:17.950Z,87.90
2022-10-19T00:10:45.351Z,87.90
2022-10-19T00:13:12.752Z,87.90
2022-10-19T00:15:40.558Z,87.90
2022-10-19T00:18:08.722Z,87.90
2022-10-19T00:20:36.691Z,87.90
2022-10-19T00:23:04.172Z,87.90
2022-10-19T00:25:32.065Z,87.80
2022-10-19T00:28:00.315Z,87.80
2022-10-19T00:30:27.656Z,87.80
2022-10-19T00:32:54.975Z,87.80
2022-10-19T00:35:22.346Z,87.80
2022-10-19T00:37:49.890Z,87.80
2022-10-19T00:40:17.304Z,87.80
2022-10-19T00:42:44.845Z,87.80
2022-10-19T00:45:14.831Z,87.90
2022-10-19T00:47:42.809Z,87.90
2022-10-19T00:50:10.911Z,87.90
2022-10-19T00:52:38.318Z,88.00
2022-10-19T00:55:07.061Z,88.00
2022-10-19T00:57:35.152Z,88.10
2022-10-19T01:00:05.031Z,88.10
2022-10-19T01:02:32.792Z,88.10
2022-10-19T01:05:01.140Z,88.10
2022-10-19T01:07:28.591Z,88.00
2022-10-19T01:09:56.101Z,88.00
2022-10-19T01:12:23.489Z,88.00
2022-10-19T01:14:58.629Z,88.00
2022-10-19T01:17:38.646Z,88.00
2022-10-19T01:20:09.162Z,88.10
2022-10-19T01:22:55.397Z,88.00
2022-10-19T01:25:41.763Z,88.10
2022-10-19T01:28:09.119Z,88.20
2022-10-19T01:30:47.748Z,88.30
2022-10-19T01:33:29.928Z,88.40
2022-10-19T01:36:00.348Z,88.40
2022-10-19T01:38:50.786Z,88.30
2022-10-19T01:41:21.633Z,88.40
2022-10-19T01:43:58.507Z,88.50
2022-10-19T01:46:39.272Z,88.50
2022-10-19T01:49:15.981Z,88.50
2022-10-19T01:51:46.169Z,88.50
2022-10-19T01:54:15.501Z,88.50
2022-10-19T01:56:45.264Z,88.50
2022-10-19T01:59:14.074Z,88.40
2022-10-19T02:01:44.101Z,88.40
2022-10-19T02:04:13.423Z,88.40
2022-10-19T02:06:41.092Z,88.30
2022-10-19T02:09:08.490Z,88.20
2022-10-19T02:11:37.227Z,88.10
2022-10-19T02:14:07.710Z,88.00
2022-10-19T02:16:38.698Z,87.90
2022-10-19T02:19:08.768Z,87.80
2022-10-19T02:21:36.243Z,87.70
2022-10-19T02:24:03.720Z,87.70
2022-10-19T02:26:31.418Z,87.60
2022-10-19T02:28:58.946Z,87.50
2022-10-19T02:31:26.488Z,87.50
2022-10-19T02:33:54.124Z,87.40
2022-10-19T02:36:21.568Z,87.40
2022-10-19T02:38:48.938Z,87.40
2022-10-19T02:41:24.777Z,87.40
2022-10-19T02:43:56.259Z,87.40
2022-10-19T02:46:27.894Z,87.40
2022-10-19T02:48:56.345Z,87.40
2022-10-19T02:51:34.852Z,87.50
2022-10-19T02:54:05.218Z,87.40
2022-10-19T02:56:33.985Z,87.30
2022-10-19T02:59:01.853Z,87.10
2022-10-19T03:01:29.193Z,87.00
2022-10-19T03:03:56.629Z,86.90
2022-10-19T03:06:24.019Z,86.90
2022-10-19T03:08:51.356Z,87.00
2022-10-19T03:11:18.802Z,86.90
2022-10-19T03:16:18.572Z,86.80
2022-10-19T03:18:47.963Z,86.80
2022-10-19T03:21:15.362Z,86.70
2022-10-19T03:23:42.735Z,86.70
2022-10-19T03:26:13.317Z,86.60
2022-10-19T03:28:40.742Z,86.50
2022-10-19T03:31:08.128Z,86.40
2022-10-19T03:33:35.502Z,86.20
2022-10-19T03:36:22.869Z,86.10
2022-10-19T03:38:53.995Z,86.10
2022-10-19T03:41:22.079Z,86.00
2022-10-19T03:43:49.645Z,85.90
2022-10-19T03:46:17.383Z,85.80
2022-10-19T03:48:44.843Z,85.80
2022-10-19T03:51:13.561Z,85.80
2022-10-19T03:53:41.305Z,85.70
2022-10-19T03:56:11.396Z,85.70
2022-10-19T03:58:39.435Z,85.70
2022-10-19T04:01:08.133Z,85.80
2022-10-19T04:06:09.659Z,85.80
2022-10-19T04:08:37.033Z,85.80
2022-10-19T04:11:05.745Z,85.80
2022-10-19T04:13:33.636Z,85.80
2022-10-19T04:16:01.199Z,85.60
2022-10-19T04:18:28.812Z,85.60
2022-10-19T04:20:57.424Z,85.50
2022-10-19T04:23:27.050Z,85.40
2022-10-19T04:26:01.543Z,85.30
2022-10-19T04:28:29.577Z,85.30
2022-10-19T04:30:57.112Z,85.20
2022-10-19T04:33:24.518Z,85.10
2022-10-19T04:35:57.543Z,85.10
2022-10-19T04:38:24.980Z,85.10
2022-10-19T04:40:52.662Z,85.00
2022-10-19T04:43:20.095Z,85.00
2022-10-19T04:45:47.439Z,84.90
2022-10-19T04:48:15.264Z,84.90
2022-10-19T04:50:42.794Z,84.90
2022-10-19T04:53:20.483Z,84.80
2022-10-19T04:55:47.923Z,84.70
2022-10-19T04:58:15.287Z,84.70
2022-10-19T05:00:42.677Z,84.60
2022-10-19T05:03:10.130Z,84.60
2022-10-19T05:05:37.535Z,84.60
2022-10-19T05:08:04.938Z,84.60
2022-10-19T05:10:32.339Z,84.70
2022-10-19T05:13:00.616Z,84.90
2022-10-19T05:15:28.359Z,85.10
2022-10-19T05:17:55.882Z,85.30
2022-10-19T05:20:23.822Z,85.40
2022-10-19T05:22:51.184Z,85.50
2022-10-19T05:25:18.620Z,85.60
2022-10-19T05:27:50.250Z,85.80
2022-10-19T05:30:18.325Z,85.90
2022-10-19T05:32:45.707Z,85.90
2022-10-19T05:35:13.220Z,85.80
2022-10-19T05:37:40.576Z,85.90
2022-10-19T05:40:08.379Z,85.90
2022-10-19T05:42:35.718Z,86.00
2022-10-19T05:45:03.638Z,85.90
2022-10-19T05:47:33.979Z,85.90
2022-10-19T05:50:01.532Z,85.90
2022-10-19T05:52:29.452Z,85.90
2022-10-19T05:54:58.368Z,85.80
2022-10-19T05:57:25.929Z,85.70
2022-10-19T05:59:56.680Z,85.60
2022-10-19T06:02:24.482Z,85.50
2022-10-19T06:04:51.981Z,85.50
2022-10-19T06:07:19.532Z,85.40
2022-10-19T06:09:47.921Z,85.40
2022-10-19T06:12:16.365Z,85.30
2022-10-19T06:14:44.252Z,85.30
2022-10-19T06:17:11.577Z,85.30
2022-10-19T06:19:39.016Z,85.20
2022-10-19T06:22:06.369Z,85.20
2022-10-19T06:24:33.760Z,85.20
2022-10-19T06:27:01.153Z,85.20
2022-10-19T06:29:28.677Z,85.20
2022-10-19T06:31:56.288Z,85.20
2022-10-19T06:34:23.753Z,85.10
2022-10-19T06:36:51.268Z,85.10
2022-10-19T06:39:18.732Z,85.10
2022-10-19T06:41:46.185Z,85.10
2022-10-19T06:44:19.076Z,85.20
2022-10-19T06:46:46.637Z,85.20
2022-10-19T06:49:14.695Z,85.20
2022-10-19T06:51:42.101Z,85.20
2022-10-19T06:54:09.455Z,85.30
2022-10-19T06:56:36.907Z,85.40
2022-10-19T06:59:04.759Z,85.40
2022-10-19T07:01:32.153Z,85.40
2022-10-19T07:03:59.568Z,85.40
2022-10-19T07:06:27.121Z,85.50
2022-10-19T07:08:54.435Z,85.50
2022-10-19T07:11:22.738Z,85.50
2022-10-19T07:13:50.510Z,85.40
2022-10-19T07:16:21.322Z,85.30
2022-10-19T07:18:50.000Z,85.30
2022-10-19T07:21:18.747Z,85.30
2022-10-19T07:23:49.396Z,85.20
2022-10-19T07:26:27.968Z,85.10
2022-10-19T07:28:56.568Z,85.00
2022-10-19T07:31:24.661Z,84.90
2022-10-19T07:33:55.853Z,84.80
2022-10-19T07:36:24.091Z,84.70
2022-10-19T07:38:51.855Z,84.70
2022-10-19T07:41:20.062Z,84.60
2022-10-19T07:43:48.154Z,84.50
2022-10-19T07:46:16.511Z,84.40
2022-10-19T07:48:44.226Z,84.40
2022-10-19T07:51:13.085Z,84.40
2022-10-19T07:53:40.882Z,84.30
2022-10-19T07:56:09.607Z,84.20
2022-10-19T07:58:37.717Z,84.10
2022-10-19T08:01:06.412Z,84.00
2022-10-19T08:06:22.250Z,84.00
2022-10-19T08:08:50.037Z,84.00
2022-10-19T08:11:19.025Z,84.00
2022-10-19T08:13:46.408Z,84.00
2022-10-19T08:16:27.924Z,84.00
2022-10-19T08:19:02.428Z,84.00
2022-10-19T08:21:30.444Z,84.00
2022-10-19T08:23:57.985Z,83.90
2022-10-19T08:26:27.942Z,83.90
2022-10-19T08:28:59.370Z,83.80
2022-10-19T08:31:27.069Z,83.90
2022-10-19T08:33:54.454Z,83.90
2022-10-19T08:36:22.354Z,83.90
2022-10-19T08:38:50.224Z,84.00
2022-10-19T08:41:23.688Z,84.10
2022-10-19T08:43:54.243Z,84.10
2022-10-19T08:46:21.731Z,83.90
2022-10-19T08:48:49.153Z,83.90
2022-10-19T08:51:16.576Z,83.80
2022-10-19T08:53:50.003Z,83.50
2022-10-19T08:56:49.330Z,83.30
2022-10-19T08:59:17.824Z,83.10
2022-10-19T09:01:54.694Z,82.90
2022-10-19T09:04:22.306Z,82.80
2022-10-19T09:06:52.874Z,82.70
2022-10-19T09:09:20.864Z,82.70
2022-10-19T09:11:49.735Z,82.70
2022-10-19T09:14:17.058Z,82.50
2022-10-19T09:16:44.667Z,82.40
2022-10-19T09:19:22.967Z,82.60
2022-10-19T09:21:51.622Z,82.40
2022-10-19T09:24:29.504Z,82.40
2022-10-19T09:26:58.987Z,82.50
2022-10-19T09:29:29.643Z,82.40
2022-10-19T09:34:34.259Z,82.40
2022-10-19T09:37:01.786Z,82.50
2022-10-19T09:39:29.905Z,82.50
2022-10-19T09:41:59.286Z,82.40
2022-10-19T09:44:27.242Z,82.10
2022-10-19T09:47:13.978Z,82.00
2022-10-19T09:49:45.826Z,81.90
2022-10-19T09:52:28.611Z,81.90
2022-10-19T09:55:01.272Z,81.80
2022-10-19T09:57:28.738Z,81.90
2022-10-19T09:59:56.596Z,81.90
2022-10-19T10:02:32.204Z,81.80
2022-10-19T10:05:04.915Z,81.80
2022-10-19T10:07:37.486Z,81.90
2022-10-19T10:10:11.582Z,81.30
2022-10-19T10:12:40.159Z,81.30
2022-10-19T10:15:07.809Z,81.30
2022-10-19T10:17:36.895Z,81.10
2022-10-19T10:20:07.710Z,81.00
2022-10-19T10:22:36.549Z,80.80
2022-10-19T10:25:12.184Z,80.40
2022-10-19T10:27:40.097Z,80.40
2022-10-19T10:30:09.419Z,80.20
2022-10-19T10:32:37.962Z,80.10
2022-10-19T10:35:16.496Z,79.80
2022-10-19T10:37:45.144Z,79.70
2022-10-19T10:40:28.013Z,79.40
2022-10-19T10:42:57.955Z,78.80
2022-10-19T10:45:33.451Z,78.40
2022-10-19T10:48:12.723Z,78.30
2022-10-19T10:50:40.164Z,78.00
2022-10-19T10:53:27.460Z,77.80
2022-10-19T10:55:55.904Z,77.30
2022-10-19T10:58:34.399Z,76.60
2022-10-19T11:01:07.549Z,75.70
2022-10-19T11:03:36.110Z,75.70
2022-10-19T11:06:03.754Z,75.60
2022-10-19T11:08:46.946Z,75.20
2022-10-19T11:11:26.801Z,74.60
2022-10-19T11:13:54.217Z,74.30
2022-10-19T11:16:44.965Z,73.80
2022-10-19T11:22:09.120Z,73.70
2022-10-19T11:24:55.284Z,73.10
2022-10-19T11:27:32.008Z,71.90
2022-10-19T11:30:03.419Z,70.60
2022-10-19T11:33:00.328Z,69.70
2022-10-19T11:35:34.800Z,70.50
2022-10-19T11:38:21.310Z,70.00
2022-10-19T11:41:19.401Z,68.40
2022-10-19T11:43:49.964Z,68.30
2022-10-19T11:46:17.469Z,69.60
2022-10-19T11:48:52.880Z,70.50
2022-10-19T11:51:27.923Z,70.70
2022-10-19T11:54:14.970Z,70.40
2022-10-19T11:57:02.448Z,70.00
2022-10-19T11:59:37.042Z,70.10
2022-10-19T12:02:23.372Z,69.60
2022-10-19T12:04:50.934Z,70.40
2022-10-19T12:07:41.651Z,70.90
2022-10-19T12:10:35.322Z,71.20
2022-10-19T12:13:04.708Z,71.90
2022-10-19T12:15:38.019Z,71.80
2022-10-19T12:18:11.158Z,71.20
2022-10-19T12:20:40.159Z,71.20
2022-10-19T12:23:31.520Z,71.60
2022-10-19T12:26:00.914Z,71.90
2022-10-19T12:28:30.036Z,71.10
2022-10-19T12:30:58.896Z,71.20
2022-10-19T12:33:35.473Z,71.00
2022-10-19T12:36:06.013Z,70.30
2022-10-19T12:39:02.995Z,70.20
2022-10-19T12:41:52.525Z,70.50
2022-10-19T12:44:32.159Z,70.90
2022-10-19T12:47:06.767Z,71.10
2022-10-19T12:49:35.287Z,71.00
2022-10-19T12:52:02.854Z,71.00
2022-10-19T12:54:32.586Z,71.30
2022-10-19T12:57:01.332Z,71.00
2022-10-19T12:59:33.331Z,71.10
2022-10-19T13:02:01.935Z,71.60
2022-10-19T13:04:33.967Z,71.40
2022-10-19T13:07:01.657Z,71.60
2022-10-19T13:09:36.262Z,72.10
2022-10-19T13:12:19.579Z,72.20
2022-10-19T13:14:50.941Z,72.50
2022-10-19T13:17:34.582Z,72.40
2022-10-19T13:20:14.680Z,71.40
2022-10-19T13:22:45.119Z,70.90
2022-10-19T13:25:21.658Z,71.10
2022-10-19T13:27:50.126Z,71.20
2022-10-19T13:30:38.482Z,70.70
2022-10-19T13:33:31.619Z,70.60
2022-10-19T13:35:59.050Z,71.00
2022-10-19T13:38:26.568Z,71.40
2022-10-19T13:40:54.170Z,71.40
2022-10-19T13:43:30.524Z,70.80
2022-10-19T13:46:05.554Z,71.00
2022-10-19T13:48:48.759Z,71.30
2022-10-19T13:51:24.409Z,71.60
2022-10-19T13:54:01.011Z,71.20
2022-10-19T13:56:32.753Z,71.50
2022-10-19T13:59:14.036Z,71.60
2022-10-19T14:01:41.545Z,71.90
2022-10-19T14:04:26.207Z,71.90
2022-10-19T14:06:56.447Z,72.10
2022-10-19T14:09:32.991Z,72.20
2022-10-19T14:12:09.063Z,72.50
2022-10-19T14:17:15.218Z,72.50
2022-10-19T14:19:44.525Z,72.60
2022-10-19T14:22:25.158Z,73.10
2022-10-19T14:24:59.422Z,73.00
2022-10-19T14:27:27.074Z,73.40
2022-10-19T14:29:54.478Z,73.40
2022-10-19T14:32:26.834Z,73.70
2022-10-19T14:34:56.604Z,73.50
2022-10-19T14:37:25.699Z,73.70
2022-10-19T14:40:29.030Z,74.00
2022-10-19T14:42:57.707Z,74.30
2022-10-19T14:45:29.693Z,74.30
2022-10-19T14:48:01.526Z,73.90
2022-10-19T14:50:28.996Z,74.10
2022-10-19T14:53:07.094Z,74.20
2022-10-19T14:55:37.934Z,74.40
2022-10-19T14:58:08.347Z,74.60
2022-10-19T15:00:36.014Z,74.50
2022-10-19T15:03:07.922Z,74.20
2022-10-19T15:05:36.363Z,74.00
2022-10-19T15:08:08.701Z,73.40
2022-10-19T15:10:41.234Z,72.90
2022-10-19T15:13:16.628Z,72.70
2022-10-19T15:15:44.021Z,72.20
2022-10-19T15:18:43.570Z,71.80
2022-10-19T15:21:12.725Z,72.10
2022-10-19T15:23:40.373Z,72.60
2022-10-19T15:26:17.282Z,72.60
2022-10-19T15:28:45.570Z,73.20
2022-10-19T15:31:15.342Z,73.70
2022-10-19T15:33:45.219Z,74.10
2022-10-19T15:36:19.856Z,74.30
2022-10-19T15:38:48.341Z,74.50
2022-10-19T15:41:20.896Z,74.60
2022-10-19T15:43:52.507Z,74.80
2022-10-19T15:46:21.889Z,74.90
2022-10-19T15:48:55.343Z,74.60
2022-10-19T15:51:23.012Z,74.60
2022-10-19T15:53:54.401Z,74.50
2022-10-19T15:56:23.215Z,74.60
2022-10-19T15:58:54.653Z,74.60
2022-10-19T16:01:23.247Z,74.40
2022-10-19T16:03:50.747Z,74.20
2022-10-19T16:06:18.863Z,74.10
2022-10-19T16:08:46.606Z,74.30
2022-10-19T16:11:14.663Z,74.20
2022-10-19T16:13:42.478Z,74.20
2022-10-19T16:16:11.650Z,74.20
2022-10-19T16:18:39.647Z,74.40
2022-10-19T16:21:07.339Z,74.70
2022-10-19T16:23:39.349Z,75.00
2022-10-19T16:26:09.417Z,75.30
2022-10-19T16:28:36.746Z,75.50
2022-10-19T16:31:04.347Z,75.80
2022-10-19T16:33:31.775Z,76.10
2022-10-19T16:35:59.231Z,76.30
2022-10-19T16:38:26.607Z,76.50
2022-10-19T16:40:53.904Z,76.60
2022-10-19T16:43:21.270Z,76.80
2022-10-19T16:45:48.621Z,76.90
2022-10-19T16:48:15.949Z,77.10
2022-10-19T16:53:15.613Z,77.60
2022-10-19T16:55:43.019Z,77.80
2022-10-19T16:58:10.469Z,78.10
2022-10-19T17:00:37.787Z,78.40
2022-10-19T17:03:05.276Z,78.60
2022-10-19T17:05:37.040Z,78.70
2022-10-19T17:08:05.241Z,78.70
2022-10-19T17:10:32.784Z,78.80
2022-10-19T17:13:00.227Z,78.80
2022-10-19T17:15:42.603Z,79.00
2022-10-19T17:18:11.079Z,79.10
2022-10-19T17:20:38.681Z,79.30
2022-10-19T17:23:06.120Z,79.50
2022-10-19T17:25:33.693Z,79.40
2022-10-19T17:28:01.619Z,79.50
2022-10-19T17:30:28.962Z,79.50
2022-10-19T17:32:56.316Z,79.40
2022-10-19T17:35:23.715Z,79.50
2022-10-19T17:37:51.115Z,79.70
2022-10-19T17:40:18.612Z,79.70
2022-10-19T17:42:46.029Z,79.60
2022-10-19T17:45:13.387Z,79.50
2022-10-19T17:47:40.816Z,79.30
2022-10-19T17:50:08.393Z,79.10
2022-10-19T17:52:35.900Z,79.10
2022-10-19T17:55:18.773Z,78.90
2022-10-19T17:57:46.253Z,78.90
2022-10-19T18:00:14.196Z,78.90
2022-10-19T18:02:43.971Z,78.90
2022-10-19T18:05:11.502Z,78.80
2022-10-19T18:07:38.977Z,78.90
2022-10-19T18:10:06.688Z,79.00
2022-10-19T18:12:34.307Z,79.10
2022-10-19T18:15:01.732Z,79.30
2022-10-19T18:17:29.073Z,79.40
2022-10-19T18:19:56.584Z,79.10
2022-10-19T18:22:23.941Z,78.90
2022-10-19T18:24:51.363Z,78.60
2022-10-19T18:27:18.821Z,78.60
2022-10-19T18:29:46.257Z,78.60
2022-10-19T18:32:13.628Z,78.50
2022-10-19T18:34:41.018Z,78.60
2022-10-19T18:37:08.542Z,78.80
2022-10-19T18:39:35.946Z,78.80
2022-10-19T18:42:03.394Z,78.90
2022-10-19T18:44:33.531Z,79.00
2022-10-19T18:47:01.984Z,78.90
2022-10-19T18:49:29.505Z,78.90
2022-10-19T18:51:57.065Z,78.90
2022-10-19T18:54:26.364Z,78.90
2022-10-19T18:56:54.462Z,78.90
2022-10-19T18:59:22.087Z,78.80
2022-10-19T19:01:49.777Z,78.80
2022-10-19T19:04:17.191Z,78.80
2022-10-19T19:06:44.587Z,79.00
2022-10-19T19:09:12.869Z,79.10
2022-10-19T19:11:41.101Z,79.20
2022-10-19T19:14:13.109Z,79.30
2022-10-19T19:16:41.563Z,79.30
2022-10-19T19:19:10.098Z,79.40
2022-10-19T19:21:38.305Z,79.70
2022-10-19T19:24:08.239Z,80.00
2022-10-19T19:26:39.127Z,80.30
2022-10-19T19:29:07.507Z,80.50
2022-10-19T19:31:35.179Z,80.60
2022-10-19T19:34:06.361Z,80.80
2022-10-19T19:36:36.047Z,81.00
2022-10-19T19:39:06.337Z,81.20
2022-10-19T19:41:34.244Z,81.30
2022-10-19T19:44:01.847Z,81.60
2022-10-19T19:46:29.509Z,81.80
2022-10-19T19:49:01.118Z,81.90
2022-10-19T19:51:29.251Z,82.00
2022-10-19T19:53:57.111Z,82.10
2022-10-19T19:56:26.199Z,82.30
2022-10-19T19:58:54.661Z,82.50
2022-10-19T20:01:22.729Z,82.50
2022-10-19T20:03:50.249Z,82.60
2022-10-19T20:06:22.125Z,82.60
2022-10-19T20:08:53.176Z,82.60
2022-10-19T20:11:22.595Z,82.60
2022-10-19T20:13:52.021Z,82.70
2022-10-19T20:16:23.795Z,82.60
2022-10-19T20:19:00.177Z,82.70
2022-10-19T20:21:27.804Z,82.60
2022-10-19T20:23:55.245Z,82.80
2022-10-19T20:26:23.392Z,82.80
2022-10-19T20:28:51.049Z,82.80
2022-10-19T20:31:18.911Z,82.90
2022-10-19T20:33:47.564Z,83.00
2022-10-19T20:36:21.526Z,83.00
2022-10-19T20:38:50.508Z,83.10
2022-10-19T20:41:18.727Z,83.20
2022-10-19T20:43:46.358Z,83.30
2022-10-19T20:46:15.328Z,83.40
2022-10-19T20:48:42.790Z,83.50
2022-10-19T20:51:13.527Z,83.60
2022-10-19T20:53:41.532Z,83.70
2022-10-19T20:56:09.974Z,83.80
2022-10-19T20:58:40.382Z,83.90
2022-10-19T21:01:09.143Z,83.90
2022-10-19T21:03:36.827Z,83.90
2022-10-19T21:06:05.747Z,83.90
2022-10-19T21:08:35.863Z,84.00
2022-10-19T21:11:20.473Z,84.10
2022-10-19T21:13:48.292Z,84.10
2022-10-19T21:16:16.697Z,84.20
2022-10-19T21:18:44.695Z,84.20
2022-10-19T21:21:15.142Z,84.20
2022-10-19T21:23:43.427Z,84.30
2022-10-19T21:26:11.160Z,84.30
2022-10-19T21:28:39.941Z,84.30
2022-10-19T21:31:08.253Z,84.30
2022-10-19T21:33:35.974Z,84.40
2022-10-19T21:36:04.187Z,84.40
2022-10-19T21:38:31.830Z,84.40
2022-10-19T21:41:00.101Z,84.50
2022-10-19T21:43:28.214Z,84.50
2022-10-19T21:45:55.771Z,84.60
2022-10-19T21:48:23.156Z,84.60
2022-10-19T21:50:50.758Z,84.60
2022-10-19T21:53:19.525Z,84.80
2022-10-19T21:55:46.911Z,84.90
2022-10-19T21:58:14.795Z,84.90
2022-10-19T22:00:42.530Z,85.00
2022-10-19T22:03:10.522Z,85.10
2022-10-19T22:05:37.961Z,85.10
2022-10-19T22:08:05.555Z,85.10
2022-10-19T22:10:32.986Z,85.10
2022-10-19T22:13:00.491Z,85.10
2022-10-19T22:15:27.870Z,85.10
2022-10-19T22:17:55.388Z,85.20
2022-10-19T22:20:22.856Z,85.20
2022-10-19T22:22:52.776Z,85.30
2022-10-19T22:25:22.512Z,85.40
2022-10-19T22:27:49.864Z,85.40
2022-10-19T22:30:17.190Z,85.40
2022-10-19T22:32:44.705Z,85.50
2022-10-19T22:35:12.151Z,85.50
2022-10-19T22:37:39.551Z,85.50
2022-10-19T22:40:07.138Z,85.60
2022-10-19T22:42:34.760Z,85.60
2022-10-19T22:45:02.495Z,85.60
2022-10-19T22:47:30.040Z,85.70
2022-10-19T22:49:57.382Z,85.70
2022-10-19T22:52:24.744Z,85.70
2022-10-19T22:54:52.078Z,85.60
2022-10-19T22:57:19.419Z,85.60
2022-10-19T22:59:46.991Z,85.70
2022-10-19T23:02:14.367Z,85.70
2022-10-19T23:04:41.699Z,85.80
2022-10-19T23:07:09.128Z,85.80
2022-10-19T23:09:36.650Z,85.80
2022-10-19T23:12:04.134Z,85.80
2022-10-19T23:14:31.745Z,85.80
2022-10-19T23:16:59.242Z,85.90
2022-10-19T23:19:26.636Z,85.90
2022-10-19T23:21:54.117Z,85.90
2022-10-19T23:24:21.689Z,86.00
2022-10-19T23:26:49.238Z,86.10
2022-10-19T23:29:16.653Z,86.10
2022-10-19T23:31:44.074Z,86.20
2022-10-19T23:34:11.501Z,86.20
2022-10-19T23:36:39.109Z,86.20
2022-10-19T23:39:06.532Z,86.20
2022-10-19T23:41:33.961Z,86.30
2022-10-19T23:44:01.338Z,86.40
2022-10-19T23:46:28.795Z,86.40
2022-10-19T23:48:56.169Z,86.50
2022-10-19T23:51:23.964Z,86.50
2022-10-19T23:53:52.622Z,86.50
2022-10-19T23:56:21.494Z,86.50
2022-10-19T23:58:49.337Z,86.70
